createdAt,value
2018-08-04T00:00:34.086Z,16.50
2018-08-04T00:03:01.821Z,16.83
2018-08-04T00:05:29.311Z,16.07
2018-08-04T00:07:56.966Z,17.73
2018-08-04T00:10:24.583Z,18.63
2018-08-04T00:12:52.360Z,18.67
2018-08-04T00:15:20.356Z,17.90
2018-08-04T00:17:48.688Z,17.73
2018-08-04T00:20:16.537Z,16.80
2018-08-04T00:22:44.406Z,18.17
2018-08-04T00:25:12.026Z,17.83
2018-08-04T00:27:39.673Z,16.87
2018-08-04T00:30:10.070Z,16.83
2018-08-04T00:32:37.665Z,16.43
2018-08-04T00:35:05.953Z,18.67
2018-08-04T00:37:33.576Z,18.63
2018-08-04T00:40:01.207Z,18.17
2018-08-04T00:42:28.834Z,17.10
2018-08-04T00:44:56.451Z,18.17
2018-08-04T00:47:23.974Z,18.07
2018-08-04T00:49:51.589Z,16.43
2018-08-04T00:52:19.170Z,18.80
2018-08-04T00:54:46.670Z,19.80
2018-08-04T00:57:14.152Z,17.23
2018-08-04T00:59:41.885Z,19.03
2018-08-04T01:02:09.356Z,18.23
2018-08-04T01:04:36.990Z,18.23
2018-08-04T01:07:04.505Z,17.23
2018-08-04T01:09:32.130Z,17.23
2018-08-04T01:11:59.646Z,15.87
2018-08-04T01:14:27.307Z,15.73
2018-08-04T01:16:54.946Z,16.93
2018-08-04T01:19:23.016Z,18.00
2018-08-04T01:21:50.897Z,18.20
2018-08-04T01:24:18.626Z,19.20
2018-08-04T01:26:46.457Z,17.83
2018-08-04T01:29:14.082Z,19.50
2018-08-04T01:31:42.008Z,18.77
2018-08-04T01:34:09.769Z,17.87
2018-08-04T01:36:37.354Z,20.57
2018-08-04T01:39:06.052Z,18.90
2018-08-04T01:41:33.661Z,17.87
2018-08-04T01:44:01.241Z,19.13
2018-08-04T01:46:28.839Z,18.50
2018-08-04T01:48:56.429Z,18.73
2018-08-04T01:51:24.054Z,17.53
2018-08-04T01:53:51.639Z,18.53
2018-08-04T01:56:19.256Z,17.40
2018-08-04T01:58:46.800Z,18.40
2018-08-04T02:01:14.436Z,18.30
2018-08-04T02:03:42.183Z,17.80
2018-08-04T02:06:09.760Z,19.37
2018-08-04T02:08:37.410Z,20.50
2018-08-04T02:11:05.005Z,19.30
2018-08-04T02:13:32.645Z,14.53
2018-08-04T02:16:00.245Z,17.03
2018-08-04T02:18:27.839Z,17.43
2018-08-04T02:20:55.360Z,16.53
2018-08-04T02:23:22.975Z,15.53
2018-08-04T02:25:50.554Z,16.50
2018-08-04T02:28:18.054Z,18.73
2018-08-04T02:30:45.786Z,18.20
2018-08-04T02:33:13.322Z,18.93
2018-08-04T02:35:40.907Z,19.67
2018-08-04T02:38:08.446Z,17.87
2018-08-04T02:40:36.042Z,20.13
2018-08-04T02:43:03.582Z,16.70
2018-08-04T02:45:31.168Z,16.83
2018-08-04T02:47:58.782Z,19.00
2018-08-04T02:50:26.432Z,17.03
2018-08-04T02:52:54.023Z,16.57
2018-08-04T02:55:21.657Z,16.30
2018-08-04T02:57:49.117Z,18.60
2018-08-04T03:00:16.627Z,20.73
2018-08-04T03:02:44.275Z,19.83
2018-08-04T03:05:11.815Z,19.93
2018-08-04T03:07:39.414Z,19.63
2018-08-04T03:10:07.048Z,20.27
2018-08-04T03:12:34.554Z,17.47
2018-08-04T03:15:02.424Z,17.73
2018-08-04T03:17:30.049Z,17.47
2018-08-04T03:19:57.655Z,18.60
2018-08-04T03:22:25.285Z,17.33
2018-08-04T03:24:52.855Z,16.90
2018-08-04T03:27:20.510Z,16.43
2018-08-04T03:29:48.125Z,17.17
2018-08-04T03:32:15.735Z,20.90
2018-08-04T03:34:43.355Z,18.60
2018-08-04T03:37:10.974Z,17.67
2018-08-04T03:39:38.469Z,17.73
2018-08-04T03:42:06.165Z,18.07
2018-08-04T03:44:33.765Z,20.20
2018-08-04T03:47:01.281Z,16.07
2018-08-04T03:49:28.866Z,16.00
2018-08-04T03:54:27.291Z,15.03
2018-08-04T03:56:54.825Z,16.33
2018-08-04T03:59:22.426Z,16.97
2018-08-04T04:01:49.926Z,16.10
2018-08-04T04:04:17.381Z,18.10
2018-08-04T04:06:44.996Z,19.17
2018-08-04T04:09:12.402Z,16.80
2018-08-04T04:11:39.901Z,18.97
2018-08-04T04:14:07.462Z,19.17
2018-08-04T04:16:35.332Z,19.27
2018-08-04T04:19:02.977Z,19.03
2018-08-04T04:21:30.517Z,19.93
2018-08-04T04:23:58.137Z,18.17
2018-08-04T04:26:25.782Z,19.60
2018-08-04T04:28:53.317Z,17.83
2018-08-04T04:31:20.979Z,16.70
2018-08-04T04:33:48.635Z,16.67
2018-08-04T04:36:16.209Z,17.10
2018-08-04T04:38:43.935Z,16.03
2018-08-04T04:41:11.545Z,17.73
2018-08-04T04:43:39.160Z,17.87
2018-08-04T04:46:06.785Z,19.20
2018-08-04T04:48:34.463Z,18.83
2018-08-04T04:51:02.064Z,17.53
2018-08-04T04:53:29.675Z,17.30
2018-08-04T04:55:57.255Z,18.53
2018-08-04T04:58:24.890Z,17.73
2018-08-04T05:00:52.385Z,20.33
2018-08-04T05:03:20.043Z,20.50
2018-08-04T05:05:47.662Z,19.43
2018-08-04T05:08:15.278Z,21.30
2018-08-04T05:10:42.908Z,63.40
2018-08-04T05:13:10.499Z,39.47
2018-08-04T05:15:38.139Z,31.27
2018-08-04T05:18:05.783Z,21.57
2018-08-04T05:20:33.429Z,22.13
2018-08-04T05:23:00.895Z,22.10
2018-08-04T05:25:28.556Z,21.90
2018-08-04T05:27:56.166Z,20.00
2018-08-04T05:30:23.837Z,17.37
2018-08-04T05:32:52.266Z,17.63
2018-08-04T05:35:19.898Z,18.67
2018-08-04T05:37:47.630Z,18.43
2018-08-04T05:40:15.149Z,23.20
2018-08-04T05:42:42.971Z,22.57
2018-08-04T05:45:10.457Z,20.67
2018-08-04T05:47:38.237Z,18.93
2018-08-04T05:50:06.414Z,18.37
2018-08-04T05:52:34.006Z,17.90
2018-08-04T05:55:01.643Z,18.63
2018-08-04T05:57:29.173Z,19.60
2018-08-04T05:59:56.758Z,19.30
2018-08-04T06:02:24.351Z,18.70
2018-08-04T06:04:51.842Z,19.10
2018-08-04T06:07:19.373Z,19.20
2018-08-04T06:09:46.895Z,17.90
2018-08-04T06:12:14.634Z,18.73
2018-08-04T06:14:42.266Z,18.40
2018-08-04T06:17:09.803Z,18.30
2018-08-04T06:19:37.781Z,19.33
2018-08-04T06:22:05.328Z,18.20
2018-08-04T06:24:33.005Z,17.80
2018-08-04T06:27:01.149Z,17.77
2018-08-04T06:29:28.776Z,18.20
2018-08-04T06:31:56.437Z,17.87
2018-08-04T06:34:23.992Z,18.27
2018-08-04T06:36:51.556Z,17.27
2018-08-04T06:39:19.116Z,16.53
2018-08-04T06:41:46.793Z,15.70
2018-08-04T06:44:14.446Z,15.33
2018-08-04T06:46:42.033Z,14.53
2018-08-04T06:49:09.556Z,14.50
2018-08-04T06:51:37.231Z,16.30
2018-08-04T06:54:05.146Z,15.37
2018-08-04T06:56:32.782Z,16.20
2018-08-04T06:59:00.436Z,16.00
2018-08-04T07:01:28.067Z,16.80
2018-08-04T07:03:55.828Z,14.73
2018-08-04T07:06:23.523Z,14.17
2018-08-04T07:08:51.188Z,13.97
2018-08-04T07:11:18.808Z,14.80
2018-08-04T07:13:46.657Z,13.40
2018-08-04T07:16:14.268Z,13.30
2018-08-04T07:18:41.964Z,13.67
2018-08-04T07:21:09.639Z,13.50
2018-08-04T07:23:37.267Z,13.43
2018-08-04T07:26:04.942Z,12.83
2018-08-04T07:28:32.538Z,13.17
2018-08-04T07:31:00.178Z,13.40
2018-08-04T07:33:27.833Z,13.30
2018-08-04T07:35:55.534Z,12.93
2018-08-04T07:38:23.121Z,13.50
2018-08-04T07:40:50.746Z,13.70
2018-08-04T07:43:18.468Z,13.70
2018-08-04T07:45:46.113Z,12.50
2018-08-04T07:48:13.627Z,12.03
2018-08-04T07:50:41.172Z,11.53
2018-08-04T07:53:08.914Z,12.23
2018-08-04T07:55:36.573Z,11.20
2018-08-04T07:58:04.450Z,11.53
2018-08-04T08:00:32.129Z,14.60
2018-08-04T08:02:59.843Z,15.40
2018-08-04T08:05:27.501Z,13.20
2018-08-04T08:07:55.204Z,10.67
2018-08-04T08:10:22.938Z,10.87
2018-08-04T08:12:50.805Z,32.83
2018-08-04T08:15:18.499Z,11.93
2018-08-04T08:17:46.219Z,9.67
2018-08-04T08:20:13.877Z,10.47
2018-08-04T08:22:42.552Z,10.10
2018-08-04T08:25:10.422Z,10.23
2018-08-04T08:27:38.385Z,10.10
2018-08-04T08:30:08.284Z,10.27
2018-08-04T08:32:36.081Z,9.77
2018-08-04T08:35:04.138Z,9.73
2018-08-04T08:37:31.749Z,9.67
2018-08-04T08:39:59.373Z,9.97
2018-08-04T08:42:27.003Z,9.00
2018-08-04T08:44:54.752Z,8.33
2018-08-04T08:47:22.532Z,8.97
2018-08-04T08:49:50.392Z,8.50
2018-08-04T08:52:18.243Z,8.67
2018-08-04T08:54:47.018Z,8.63
2018-08-04T08:57:14.693Z,9.15
2018-08-04T08:59:42.359Z,8.57
2018-08-04T09:02:10.060Z,8.98
2018-08-04T09:04:38.081Z,9.03
2018-08-04T09:07:05.724Z,9.40
2018-08-04T09:09:33.434Z,9.07
2018-08-04T09:12:01.143Z,8.50
2018-08-04T09:14:28.877Z,8.98
2018-08-04T09:16:56.634Z,9.25
2018-08-04T09:19:24.213Z,8.75
2018-08-04T09:21:51.975Z,9.13
2018-08-04T09:24:19.583Z,8.68
2018-08-04T09:26:47.287Z,7.87
2018-08-04T09:29:15.049Z,8.58
2018-08-04T09:31:42.783Z,8.98
2018-08-04T09:34:10.495Z,9.03
2018-08-04T09:36:38.138Z,8.35
2018-08-04T09:39:08.720Z,9.30
2018-08-04T09:41:36.444Z,8.93
2018-08-04T09:44:04.357Z,8.83
2018-08-04T09:46:32.019Z,9.13
2018-08-04T09:48:59.703Z,8.83
2018-08-04T09:51:27.427Z,8.48
2018-08-04T09:53:55.438Z,8.38
2018-08-04T09:56:23.090Z,8.50
2018-08-04T09:58:50.787Z,8.73
2018-08-04T10:01:23.904Z,8.90
2018-08-04T10:03:51.618Z,8.63
2018-08-04T10:06:19.313Z,8.80
2018-08-04T10:08:47.005Z,7.87
2018-08-04T10:11:14.763Z,8.25
2018-08-04T10:13:42.442Z,8.93
2018-08-04T10:16:10.182Z,7.70
2018-08-04T10:18:37.808Z,8.85
2018-08-04T10:21:05.455Z,8.28
2018-08-04T10:23:33.117Z,7.17
2018-08-04T10:26:00.860Z,7.85
2018-08-04T10:28:28.539Z,7.03
2018-08-04T10:30:56.220Z,8.43
2018-08-04T10:33:23.951Z,7.85
2018-08-04T10:35:51.703Z,8.18
2018-08-04T10:38:19.436Z,7.90
2018-08-04T10:40:47.045Z,7.28
2018-08-04T10:43:14.691Z,7.45
2018-08-04T10:45:42.358Z,7.33
2018-08-04T10:48:10.028Z,7.47
2018-08-04T10:50:37.804Z,7.35
2018-08-04T10:53:05.759Z,7.28
2018-08-04T10:55:33.284Z,7.30
2018-08-04T10:58:01.019Z,6.90
2018-08-04T11:00:28.688Z,7.10
2018-08-04T11:02:56.448Z,6.87
2018-08-04T11:05:24.240Z,6.67
2018-08-04T11:07:52.178Z,6.33
2018-08-04T11:10:19.934Z,5.97
2018-08-04T11:12:47.594Z,7.10
2018-08-04T11:15:15.204Z,6.45
2018-08-04T11:17:42.901Z,6.75
2018-08-04T11:20:10.726Z,6.20
2018-08-04T11:22:38.396Z,7.12
2018-08-04T11:25:06.145Z,7.08
2018-08-04T11:27:33.950Z,6.53
2018-08-04T11:30:01.673Z,6.65
2018-08-04T11:32:29.385Z,6.83
2018-08-04T11:34:57.060Z,6.30
2018-08-04T11:37:24.723Z,6.40
2018-08-04T11:39:52.379Z,6.72
2018-08-04T11:42:20.103Z,6.45
2018-08-04T11:44:47.865Z,6.47
2018-08-04T11:47:15.680Z,6.70
2018-08-04T11:49:43.354Z,6.50
2018-08-04T11:52:11.083Z,6.33
2018-08-04T11:54:38.717Z,6.22
2018-08-04T11:57:06.508Z,6.50
2018-08-04T11:59:34.144Z,7.03
2018-08-04T12:02:02.026Z,6.70
2018-08-04T12:04:29.664Z,7.17
2018-08-04T12:06:57.425Z,6.83
2018-08-04T12:09:25.127Z,6.40
2018-08-04T12:11:52.803Z,6.33
2018-08-04T12:14:20.483Z,6.53
2018-08-04T12:16:48.140Z,6.72
2018-08-04T12:19:16.050Z,6.12
2018-08-04T12:21:43.690Z,6.47
2018-08-04T12:24:11.368Z,6.60
2018-08-04T12:26:39.032Z,6.72
2018-08-04T12:29:06.741Z,6.92
2018-08-04T12:31:34.581Z,6.65
2018-08-04T12:34:03.220Z,5.87
2018-08-04T12:36:30.943Z,5.65
2018-08-04T12:38:58.715Z,5.50
2018-08-04T12:41:26.490Z,5.70
2018-08-04T12:43:54.268Z,5.58
2018-08-04T12:46:21.953Z,5.10
2018-08-04T12:48:49.785Z,4.80
2018-08-04T12:51:17.471Z,4.95
2018-08-04T12:53:45.098Z,4.90
2018-08-04T12:56:12.883Z,4.75
2018-08-04T12:58:40.592Z,4.97
2018-08-04T13:01:08.339Z,4.87
2018-08-04T13:03:36.099Z,4.65
2018-08-04T13:06:03.814Z,4.58
2018-08-04T13:08:31.549Z,4.47
2018-08-04T13:10:59.379Z,4.67
2018-08-04T13:13:27.088Z,4.83
2018-08-04T13:15:54.885Z,4.85
2018-08-04T13:18:22.600Z,4.72
2018-08-04T13:20:50.360Z,4.90
2018-08-04T13:23:18.071Z,4.60
2018-08-04T13:25:45.794Z,4.67
2018-08-04T13:28:13.770Z,4.95
2018-08-04T13:30:41.488Z,4.95
2018-08-04T13:33:09.199Z,5.35
2018-08-04T13:35:36.911Z,5.05
2018-08-04T13:38:04.664Z,5.22
2018-08-04T13:40:32.720Z,5.05
2018-08-04T13:43:00.496Z,4.75
2018-08-04T13:45:28.216Z,5.22
2018-08-04T13:47:56.002Z,4.87
2018-08-04T13:50:23.659Z,5.12
2018-08-04T13:52:51.348Z,4.83
2018-08-04T13:55:19.164Z,5.12
2018-08-04T13:57:46.836Z,5.20
2018-08-04T14:00:14.545Z,5.22
2018-08-04T14:02:42.293Z,4.55
2018-08-04T14:05:09.929Z,4.62
2018-08-04T14:07:37.585Z,4.75
2018-08-04T14:10:05.385Z,4.70
2018-08-04T14:12:33.131Z,4.85
2018-08-04T14:15:00.831Z,4.65
2018-08-04T14:17:28.588Z,4.58
2018-08-04T14:19:56.315Z,4.97
2018-08-04T14:22:24.129Z,5.10
2018-08-04T14:24:51.870Z,5.20
2018-08-04T14:27:19.526Z,5.20
2018-08-04T14:29:47.263Z,4.87
2018-08-04T14:32:14.879Z,5.03
2018-08-04T14:34:42.620Z,5.10
2018-08-04T14:37:10.319Z,5.42
2018-08-04T14:39:38.020Z,5.17
2018-08-04T14:42:05.769Z,5.28
2018-08-04T14:44:33.461Z,5.58
2018-08-04T14:47:01.244Z,5.20
2018-08-04T14:49:29.022Z,5.78
2018-08-04T14:51:56.657Z,5.33
2018-08-04T14:54:24.362Z,5.60
2018-08-04T14:56:52.101Z,5.47
2018-08-04T14:59:19.804Z,5.80
2018-08-04T15:01:47.627Z,5.60
2018-08-04T15:04:15.470Z,5.53
2018-08-04T15:06:43.090Z,5.53
2018-08-04T15:09:11.900Z,5.08
2018-08-04T15:11:40.200Z,5.53
2018-08-04T15:14:08.535Z,5.22
2018-08-04T15:16:36.186Z,5.37
2018-08-04T15:19:04.000Z,5.55
2018-08-04T15:21:31.764Z,5.70
2018-08-04T15:23:59.349Z,5.10
2018-08-04T15:26:27.189Z,5.12
2018-08-04T15:28:54.789Z,4.83
2018-08-04T15:31:22.527Z,5.30
2018-08-04T15:33:50.239Z,5.17
2018-08-04T15:36:17.966Z,5.10
2018-08-04T15:38:45.695Z,5.15
2018-08-04T15:41:13.421Z,5.25
2018-08-04T15:43:41.116Z,5.05
2018-08-04T15:46:08.881Z,5.58
2018-08-04T15:48:36.577Z,5.15
2018-08-04T15:51:04.309Z,5.60
2018-08-04T15:53:32.011Z,5.50
2018-08-04T15:55:59.756Z,5.45
2018-08-04T15:58:27.608Z,5.85
2018-08-04T16:00:55.324Z,5.92
2018-08-04T16:03:23.215Z,5.67
2018-08-04T16:05:50.961Z,6.00
2018-08-04T16:08:18.625Z,5.35
2018-08-04T16:10:46.435Z,5.85
2018-08-04T16:13:14.173Z,5.45
2018-08-04T16:15:41.892Z,5.60
2018-08-04T16:18:09.760Z,5.85
2018-08-04T16:20:37.506Z,5.92
2018-08-04T16:23:05.294Z,6.05
2018-08-04T16:25:33.100Z,6.08
2018-08-04T16:28:00.791Z,6.10
2018-08-04T16:30:28.511Z,5.97
2018-08-04T16:32:56.176Z,5.70
2018-08-04T16:35:23.918Z,5.30
2018-08-04T16:37:51.555Z,5.85
2018-08-04T16:40:19.281Z,5.90
2018-08-04T16:42:46.967Z,6.12
2018-08-04T16:45:14.695Z,6.37
2018-08-04T16:47:42.386Z,6.40
2018-08-04T16:50:10.176Z,5.70
2018-08-04T16:52:37.784Z,6.03
2018-08-04T16:55:05.451Z,6.25
2018-08-04T16:57:33.242Z,6.10
2018-08-04T17:00:00.982Z,6.03
2018-08-04T17:02:28.756Z,5.75
2018-08-04T17:04:56.400Z,6.58
2018-08-04T17:07:24.191Z,5.65
2018-08-04T17:09:52.083Z,5.90
2018-08-04T17:12:19.715Z,6.17
2018-08-04T17:14:47.375Z,6.40
2018-08-04T17:17:15.161Z,5.70
2018-08-04T17:19:42.721Z,6.28
2018-08-04T17:22:10.527Z,5.87
2018-08-04T17:24:38.262Z,6.60
2018-08-04T17:27:05.970Z,6.55
2018-08-04T17:29:33.746Z,6.60
2018-08-04T17:32:01.447Z,6.50
2018-08-04T17:34:29.328Z,6.70
2018-08-04T17:36:57.068Z,6.70
2018-08-04T17:39:24.735Z,6.62
2018-08-04T17:41:52.553Z,6.30
2018-08-04T17:44:20.271Z,6.40
2018-08-04T17:46:47.986Z,6.43
2018-08-04T17:49:15.827Z,6.60
2018-08-04T17:51:43.517Z,6.30
2018-08-04T17:54:11.334Z,7.10
2018-08-04T17:56:39.034Z,6.15
2018-08-04T17:59:06.733Z,6.65
2018-08-04T18:01:34.427Z,6.57
2018-08-04T18:04:02.519Z,7.37
2018-08-04T18:06:30.270Z,7.23
2018-08-04T18:08:58.152Z,6.70
2018-08-04T18:11:25.840Z,6.53
2018-08-04T18:13:53.536Z,6.27
2018-08-04T18:16:21.185Z,6.27
2018-08-04T18:18:48.868Z,6.23
2018-08-04T18:21:16.627Z,6.67
2018-08-04T18:23:44.302Z,5.90
2018-08-04T18:26:11.975Z,6.30
2018-08-04T18:28:39.502Z,6.07
2018-08-04T18:31:07.961Z,6.23
2018-08-04T18:33:35.679Z,6.57
2018-08-04T18:36:03.736Z,6.40
2018-08-04T18:38:31.423Z,6.00
2018-08-04T18:40:59.020Z,6.27
2018-08-04T18:43:27.588Z,6.53
2018-08-04T18:45:55.295Z,6.27
2018-08-04T18:48:22.962Z,6.50
2018-08-04T18:50:50.610Z,6.70
2018-08-04T18:53:18.412Z,6.63
2018-08-04T18:55:46.087Z,5.97
2018-08-04T18:58:13.750Z,6.97
2018-08-04T19:00:41.435Z,6.40
2018-08-04T19:03:09.266Z,6.93
2018-08-04T19:05:37.003Z,6.83
2018-08-04T19:08:04.691Z,6.63
2018-08-04T19:10:32.343Z,8.47
2018-08-04T19:12:59.934Z,8.40
2018-08-04T19:15:27.590Z,11.87
2018-08-04T19:17:55.346Z,10.93
2018-08-04T19:20:23.060Z,8.07
2018-08-04T19:22:50.875Z,8.50
2018-08-04T19:25:18.560Z,8.43
2018-08-04T19:27:46.328Z,8.67
2018-08-04T19:30:14.150Z,8.33
2018-08-04T19:32:41.790Z,7.97
2018-08-04T19:35:09.477Z,7.03
2018-08-04T19:37:37.335Z,6.73
2018-08-04T19:40:05.315Z,7.30
2018-08-04T19:42:33.036Z,6.27
2018-08-04T19:45:00.573Z,7.50
2018-08-04T19:47:28.294Z,7.27
2018-08-04T19:49:56.104Z,7.10
2018-08-04T19:52:23.785Z,7.50
2018-08-04T19:54:51.586Z,7.57
2018-08-04T19:57:19.426Z,7.27
2018-08-04T19:59:47.192Z,8.40
2018-08-04T20:02:15.044Z,7.40
2018-08-04T20:04:43.477Z,7.70
2018-08-04T20:07:11.070Z,7.73
2018-08-04T20:09:39.014Z,7.50
2018-08-04T20:12:06.881Z,7.70
2018-08-04T20:14:34.678Z,6.97
2018-08-04T20:17:02.614Z,7.27
2018-08-04T20:19:30.520Z,6.53
2018-08-04T20:21:58.383Z,6.93
2018-08-04T20:24:26.077Z,7.30
2018-08-04T20:26:53.864Z,6.97
2018-08-04T20:29:21.805Z,7.43
2018-08-04T20:31:49.640Z,6.90
2018-08-04T20:34:17.397Z,7.83
2018-08-04T20:36:45.173Z,7.47
2018-08-04T20:39:13.061Z,7.23
2018-08-04T20:41:40.747Z,7.67
2018-08-04T20:44:08.436Z,7.20
2018-08-04T20:46:36.335Z,7.23
2018-08-04T20:49:04.416Z,7.17
2018-08-04T20:51:32.283Z,8.43
2018-08-04T20:54:00.228Z,8.20
2018-08-04T20:56:28.062Z,7.40
2018-08-04T20:58:55.994Z,8.43
2018-08-04T21:01:29.266Z,7.70
2018-08-04T21:03:57.001Z,8.37
2018-08-04T21:06:24.713Z,8.47
2018-08-04T21:08:52.639Z,8.50
2018-08-04T21:11:20.474Z,8.17
2018-08-04T21:13:48.335Z,8.37
2018-08-04T21:16:16.147Z,8.07
2018-08-04T21:18:44.087Z,8.80
2018-08-04T21:21:12.106Z,8.40
2018-08-04T21:23:39.900Z,8.60
2018-08-04T21:26:07.760Z,9.27
2018-08-04T21:28:35.539Z,9.17
2018-08-04T21:31:03.306Z,8.57
2018-08-04T21:33:30.996Z,8.97
2018-08-04T21:35:58.778Z,9.10
2018-08-04T21:38:26.657Z,9.03
2018-08-04T21:40:54.459Z,9.17
2018-08-04T21:43:22.243Z,9.47
2018-08-04T21:45:49.898Z,8.67
2018-08-04T21:48:17.710Z,10.13
2018-08-04T21:50:45.439Z,9.93
2018-08-04T21:53:13.126Z,9.13
2018-08-04T21:55:40.727Z,8.70
2018-08-04T21:58:08.432Z,9.00
2018-08-04T22:00:40.678Z,9.13
2018-08-04T22:03:08.421Z,9.30
2018-08-04T22:05:36.053Z,10.80
2018-08-04T22:08:15.169Z,9.67
2018-08-04T22:10:42.786Z,10.53
2018-08-04T22:13:10.439Z,9.97
2018-08-04T22:15:38.035Z,9.73
2018-08-04T22:18:05.716Z,10.47
2018-08-04T22:20:33.379Z,10.47
2018-08-04T22:23:01.009Z,10.50
2018-08-04T22:25:29.576Z,10.97
2018-08-04T22:27:57.787Z,9.90
2018-08-04T22:30:25.888Z,10.80
2018-08-04T22:32:53.596Z,10.00
2018-08-04T22:35:21.724Z,9.80
2018-08-04T22:37:49.551Z,10.53
2018-08-04T22:40:18.107Z,9.90
2018-08-04T22:42:45.814Z,10.23
2018-08-04T22:46:08.251Z,10.90
2018-08-04T22:48:35.993Z,10.80
2018-08-04T22:51:03.738Z,10.67
2018-08-04T22:53:31.478Z,10.23
2018-08-04T22:55:59.197Z,10.40
2018-08-04T22:58:26.886Z,9.40
2018-08-04T23:00:54.502Z,10.60
2018-08-04T23:03:22.192Z,10.03
2018-08-04T23:05:49.857Z,9.87
2018-08-04T23:08:17.494Z,9.90
2018-08-04T23:10:45.336Z,10.57
2018-08-04T23:13:13.318Z,10.30
2018-08-04T23:15:41.014Z,11.13
2018-08-04T23:18:09.010Z,9.10
2018-08-04T23:20:36.846Z,10.50
2018-08-04T23:23:04.633Z,10.10
2018-08-04T23:25:32.291Z,11.20
2018-08-04T23:27:59.921Z,10.43
2018-08-04T23:30:27.653Z,10.80
2018-08-04T23:32:55.438Z,10.47
2018-08-04T23:35:24.273Z,11.33
2018-08-04T23:37:52.036Z,10.10
2018-08-04T23:40:19.956Z,10.20
2018-08-04T23:42:47.598Z,10.07
2018-08-04T23:45:15.326Z,10.30
2018-08-04T23:47:43.113Z,10.33
2018-08-04T23:50:20.295Z,9.70
2018-08-04T23:52:47.869Z,10.73
2018-08-04T23:55:15.519Z,11.90
2018-08-04T23:57:43.162Z,12.60
